createdAt,value
2023-04-13T00:02:26.896Z,40.9
2023-04-13T00:07:30.064Z,41
2023-04-13T00:12:30.148Z,40.8
2023-04-13T00:17:30.839Z,40.3
2023-04-13T00:22:31.271Z,40.4
2023-04-13T00:27:31.700Z,40.5
2023-04-13T00:32:35.033Z,40.5
2023-04-13T00:37:35.078Z,40.5
2023-04-13T00:42:35.782Z,40.2
2023-04-13T00:47:39.417Z,40.4
2023-04-13T00:52:41.834Z,40.1
2023-04-13T00:57:42.014Z,40.4
2023-04-13T01:02:42.852Z,40.3
2023-04-13T01:07:42.775Z,40.4
2023-04-13T01:12:44.192Z,40.3
2023-04-13T01:17:48.607Z,40.2
2023-04-13T01:22:51.370Z,40.4
2023-04-13T01:27:51.339Z,40.4
2023-04-13T01:32:51.940Z,40.3
2023-04-13T01:37:52.532Z,40.3
2023-04-13T01:42:53.138Z,40.3
2023-04-13T01:47:53.815Z,40.4
2023-04-13T01:52:57.090Z,40.3
2023-04-13T01:57:57.108Z,40.4
2023-04-13T02:02:57.853Z,40.3
2023-04-13T02:07:58.348Z,40.2
2023-04-13T02:13:01.528Z,40.2
2023-04-13T02:18:01.555Z,40.2
2023-04-13T02:23:02.222Z,40.3
2023-04-13T02:28:02.948Z,40.3
2023-04-13T02:33:06.461Z,40.2
2023-04-13T02:38:09.422Z,40.3
2023-04-13T02:43:09.641Z,40.2
2023-04-13T02:48:10.200Z,40.2
2023-04-13T02:53:13.555Z,40.1
2023-04-13T02:58:16.484Z,40.1
2023-04-13T03:03:16.696Z,40.2
2023-04-13T03:08:17.362Z,40.1
2023-04-13T03:13:20.782Z,40.2
2023-04-13T03:18:20.938Z,40.1
2023-04-13T03:23:21.497Z,40.2
2023-04-13T03:28:22.014Z,40.1
2023-04-13T03:33:22.435Z,40.1
2023-04-13T03:38:25.546Z,40.1
2023-04-13T03:43:25.666Z,40.1
2023-04-13T03:48:26.317Z,40.1
2023-04-13T03:53:26.782Z,40
2023-04-13T03:58:27.201Z,40.2
2023-04-13T04:03:27.906Z,40.1
2023-04-13T04:08:28.486Z,40
2023-04-13T04:13:29.277Z,40
2023-04-13T04:18:29.915Z,39.8
2023-04-13T04:23:33.401Z,39.7
2023-04-13T04:28:33.471Z,39.8
2023-04-13T04:33:33.832Z,39.7
2023-04-13T04:38:36.029Z,39.7
2023-04-13T04:43:36.268Z,39.8
2023-04-13T04:48:36.794Z,39.8
2023-04-13T04:53:40.229Z,39.9
2023-04-13T04:58:46.786Z,39.9
2023-04-13T05:03:46.222Z,40
2023-04-13T05:08:46.803Z,40
2023-04-13T05:13:52.954Z,40.1
2023-04-13T05:18:52.833Z,40.2
2023-04-13T05:23:53.610Z,40.3
2023-04-13T05:28:54.132Z,40.4
2023-04-13T05:33:57.614Z,40.4
2023-04-13T05:38:57.808Z,40.4
2023-04-13T05:43:58.319Z,40.4
2023-04-13T05:48:58.932Z,40.5
2023-04-13T05:53:59.461Z,40.6
2023-04-13T05:59:02.632Z,40.6
2023-04-13T06:04:02.975Z,40.7
2023-04-13T06:09:03.253Z,40.7
2023-04-13T06:14:03.727Z,40.8
2023-04-13T06:19:16.189Z,40.9
2023-04-13T06:24:17.556Z,40.9
2023-04-13T06:29:17.693Z,40.9
2023-04-13T06:34:18.372Z,41
2023-04-13T06:39:18.832Z,41
2023-04-13T06:44:19.046Z,41.1
2023-04-13T06:49:19.775Z,41.1
2023-04-13T06:54:22.727Z,41.1
2023-04-13T06:59:26.376Z,41.2
2023-04-13T07:04:28.674Z,41.2
2023-04-13T07:09:26.895Z,41.2
2023-04-13T07:14:30.261Z,41.2
2023-04-13T07:19:32.866Z,41.3
2023-04-13T07:24:35.797Z,41.3
2023-04-13T07:29:35.714Z,41.4
2023-04-13T07:34:36.173Z,41.5
2023-04-13T07:39:36.917Z,41.5
2023-04-13T07:44:37.572Z,41.5
2023-04-13T07:49:38.186Z,41.7
2023-04-13T07:54:42.379Z,41.7
2023-04-13T07:59:42.213Z,41.7
2023-04-13T08:04:45.682Z,41.8
2023-04-13T08:09:45.715Z,42
2023-04-13T08:14:49.021Z,42.1
2023-04-13T08:19:50.152Z,42.2
2023-04-13T08:24:51.194Z,42.2
2023-04-13T08:29:51.676Z,42.2
2023-04-13T08:34:52.316Z,42.3
2023-04-13T08:39:52.859Z,42.3
2023-04-13T08:44:53.360Z,42.3
2023-04-13T08:49:53.974Z,42.3
2023-04-13T08:54:54.565Z,42.4
2023-04-13T08:59:55.216Z,42.4
2023-04-13T09:04:55.854Z,42.4
2023-04-13T09:09:56.467Z,42.3
2023-04-13T09:14:56.923Z,42.3
2023-04-13T09:19:57.664Z,42.3
2023-04-13T09:24:58.158Z,42.3
2023-04-13T09:29:58.725Z,42.2
2023-04-13T09:34:59.076Z,42.1
2023-04-13T09:39:59.367Z,41.9
2023-04-13T09:44:59.777Z,42
2023-04-13T09:50:00.227Z,42
2023-04-13T09:55:00.689Z,42.1
2023-04-13T10:00:04.263Z,42.2
2023-04-13T10:05:07.293Z,42.2
2023-04-13T10:10:07.447Z,42.2
2023-04-13T10:15:10.952Z,42.2
2023-04-13T10:20:27.809Z,42.3
2023-04-13T10:25:33.397Z,42.2
2023-04-13T10:30:30.242Z,42.4
2023-04-13T10:35:30.696Z,42.5
2023-04-13T10:40:33.918Z,42.5
2023-04-13T10:45:34.236Z,42.5
2023-04-13T10:50:37.657Z,42.5
2023-04-13T10:55:36.621Z,42.5
2023-04-13T11:00:45.910Z,42.4
2023-04-13T11:05:38.126Z,42.5
2023-04-13T11:10:41.315Z,42.5
2023-04-13T11:15:42.076Z,42.5
2023-04-13T11:20:45.149Z,42.6
2023-04-13T11:25:45.299Z,42.7
2023-04-13T11:30:45.882Z,42.8
2023-04-13T11:35:49.707Z,42.7
2023-04-13T11:40:50.053Z,42.6
2023-04-13T11:45:50.168Z,42.8
2023-04-13T11:50:50.806Z,42.9
2023-04-13T11:55:59.308Z,42.9
2023-04-13T12:01:03.000Z,43.1
2023-04-13T12:05:58.597Z,43
2023-04-13T12:11:24.821Z,43
2023-04-13T12:16:08.282Z,43.1
2023-04-13T12:21:03.412Z,43.2
2023-04-13T12:31:06.510Z,43.1
2023-04-13T12:36:07.152Z,43
2023-04-13T12:41:07.804Z,43.1
2023-04-13T12:46:08.058Z,43.2
2023-04-13T12:51:08.803Z,43.3
2023-04-13T12:56:09.476Z,43.3
2023-04-13T13:01:10.213Z,43.2
2023-04-13T13:06:13.614Z,42.7
2023-04-13T13:11:13.876Z,42.8
2023-04-13T13:16:14.441Z,43
2023-04-13T13:21:17.707Z,43.2
2023-04-13T13:31:18.597Z,42.9
2023-04-13T13:36:19.260Z,42.8
2023-04-13T13:41:19.690Z,42.7
2023-04-13T13:46:23.784Z,43
2023-04-13T13:51:23.685Z,43.2
2023-04-13T13:56:24.436Z,43.1
2023-04-13T14:01:25.002Z,43.2
2023-04-13T14:06:25.615Z,43.3
2023-04-13T14:11:26.468Z,43.4
2023-04-13T14:16:27.186Z,43.3
2023-04-13T14:21:27.802Z,43.4
2023-04-13T14:26:28.720Z,43.5
2023-04-13T14:31:29.707Z,43.6
2023-04-13T14:36:30.454Z,43.6
2023-04-13T14:41:30.940Z,43.6
2023-04-13T14:46:33.646Z,43.6
2023-04-13T14:51:36.619Z,43.7
2023-04-13T14:56:36.934Z,43.7
2023-04-13T15:01:37.563Z,43.7
2023-04-13T15:06:41.028Z,43.9
2023-04-13T15:11:43.658Z,43.9
2023-04-13T15:16:43.795Z,43.9
2023-04-13T15:21:44.448Z,44
2023-04-13T15:26:47.809Z,44
2023-04-13T15:31:50.838Z,44.1
2023-04-13T15:36:51.122Z,44.2
2023-04-13T15:41:52.842Z,44.1
2023-04-13T15:46:53.284Z,44.2
2023-04-13T15:51:56.505Z,44.1
2023-04-13T15:56:56.647Z,44.2
2023-04-13T16:01:57.231Z,44.2
2023-04-13T16:07:09.821Z,44.3
2023-04-13T16:11:58.483Z,44.4
2023-04-13T16:16:59.103Z,44.4
2023-04-13T16:22:02.698Z,44.5
2023-04-13T16:27:03.325Z,44.4
2023-04-13T16:32:04.099Z,44.4
2023-04-13T16:37:07.586Z,44.3
2023-04-13T16:42:07.404Z,44.4
2023-04-13T16:47:07.508Z,44.5
2023-04-13T16:52:10.900Z,44.6
2023-04-13T16:57:11.155Z,44.6
2023-04-13T17:02:18.202Z,44.6
2023-04-13T17:07:12.093Z,44.7
2023-04-13T17:12:15.352Z,44.7
2023-04-13T17:17:15.558Z,44.8
2023-04-13T17:22:15.953Z,44.8
2023-04-13T17:27:19.338Z,44.8
2023-04-13T17:32:22.494Z,45
2023-04-13T17:37:22.370Z,45.1
2023-04-13T17:42:22.954Z,45
2023-04-13T17:47:23.533Z,45
2023-04-13T17:52:26.821Z,45
2023-04-13T17:57:26.990Z,45
2023-04-13T18:02:27.815Z,45.1
2023-04-13T18:07:28.146Z,45
2023-04-13T18:12:28.780Z,45
2023-04-13T18:17:30.255Z,44.7
2023-04-13T18:22:33.395Z,44.9
2023-04-13T18:27:33.426Z,44.7
2023-04-13T18:32:36.652Z,44.6
2023-04-13T18:37:36.699Z,44.9
2023-04-13T18:42:37.353Z,44.6
2023-04-13T18:47:37.771Z,44.7
2023-04-13T18:52:38.284Z,44.4
2023-04-13T18:57:38.966Z,44.5
2023-04-13T19:02:39.916Z,44.1
2023-04-13T19:07:42.216Z,44.4
2023-04-13T19:12:42.524Z,44.4
2023-04-13T19:17:43.174Z,44.3
2023-04-13T19:22:43.716Z,44.2
2023-04-13T19:27:46.186Z,44.3
2023-04-13T19:32:46.392Z,44.5
2023-04-13T19:37:46.908Z,44.4
2023-04-13T19:42:47.474Z,44.6
2023-04-13T19:47:48.223Z,44.8
2023-04-13T19:52:48.559Z,44.7
2023-04-13T19:57:50.001Z,44.4
2023-04-13T20:02:50.530Z,44.6
2023-04-13T20:07:53.694Z,44.5
2023-04-13T20:12:53.955Z,44.7
2023-04-13T20:17:54.099Z,44.7
2023-04-13T20:22:54.768Z,44.7
2023-04-13T20:27:55.356Z,44.6
2023-04-13T20:32:55.971Z,44.4
2023-04-13T20:37:56.673Z,44.5
2023-04-13T20:42:57.402Z,44.4
2023-04-13T20:47:58.101Z,44.4
2023-04-13T20:53:01.131Z,44.5
2023-04-13T20:58:01.157Z,44.4
2023-04-13T21:03:01.850Z,44.5
2023-04-13T21:08:05.136Z,44.5
2023-04-13T21:13:08.034Z,44.5
2023-04-13T21:18:12.384Z,44.5
2023-04-13T21:23:12.253Z,44.4
2023-04-13T21:28:12.821Z,44.3
2023-04-13T21:33:16.276Z,44.4
2023-04-13T21:38:20.829Z,44.3
2023-04-13T21:43:20.736Z,44.4
2023-04-13T21:48:21.806Z,44.4
2023-04-13T21:53:25.026Z,44.4
2023-04-13T21:58:25.075Z,44.4
2023-04-13T22:03:25.720Z,44.3
2023-04-13T22:08:25.944Z,44.3
2023-04-13T22:13:29.105Z,44.3
2023-04-13T22:18:29.238Z,44.2
2023-04-13T22:23:29.624Z,44.2
2023-04-13T22:28:32.949Z,44.2
2023-04-13T22:33:32.921Z,44.2
2023-04-13T22:38:33.304Z,44.2
2023-04-13T22:43:33.873Z,44.2
2023-04-13T22:48:34.750Z,44.3
2023-04-13T22:53:38.396Z,44.2
2023-04-13T22:58:38.400Z,44.1
2023-04-13T23:03:41.765Z,44.2
2023-04-13T23:08:44.553Z,44.2
2023-04-13T23:13:44.868Z,44.2
2023-04-13T23:18:45.544Z,44.2
2023-04-13T23:23:46.078Z,44.2
2023-04-13T23:28:46.703Z,44.1
2023-04-13T23:33:47.439Z,44.2
2023-04-13T23:38:47.849Z,44.2
2023-04-13T23:43:51.310Z,44.2
2023-04-13T23:48:51.403Z,44.1
2023-04-13T23:53:54.840Z,44.2
2023-04-13T23:58:54.907Z,44.1
